Time,TemperatureF,DewpointF,PressureIn,WindDirection,WindDirectionDegrees,WindSpeedMPH,WindSpeedGustMPH,Humidity,HourlyPrecipIn,Conditions,Clouds,dailyrainin,SoftwareType,DateUTC
2013-03-16 00:01:00,49.0,45.0,30.13,SSW,205,0.0,1.0,86,0.00,,,0.00,,2013-03-16 07:01:00,
2013-03-16 00:11:00,49.0,45.0,30.13,SSW,205,0.0,1.0,86,0.00,,,0.00,,2013-03-16 07:11:00,
2013-03-16 00:22:00,48.0,44.0,30.13,South,182,0.0,3.0,86,0.00,,,0.00,,2013-03-16 07:22:00,
2013-03-16 00:32:00,48.0,44.0,30.13,South,182,0.0,3.0,86,0.00,,,0.00,,2013-03-16 07:32:00,
2013-03-16 00:42:00,48.0,44.0,30.13,South,182,0.0,3.0,86,0.00,,,0.00,,2013-03-16 07:42:00,
2013-03-16 00:52:00,48.0,44.0,30.12,SW,230,0.0,6.0,86,0.00,,,0.00,,2013-03-16 07:52:00,
2013-03-16 01:01:00,48.0,44.0,30.11,SW,215,1.0,4.0,86,0.00,,,0.00,,2013-03-16 08:01:00,
2013-03-16 01:12:00,48.0,44.0,30.11,SW,215,1.0,4.0,86,0.00,,,0.00,,2013-03-16 08:12:00,
2013-03-16 01:22:00,48.0,44.0,30.11,SW,223,4.0,8.0,87,0.00,,,0.00,,2013-03-16 08:22:00,
2013-03-16 01:32:00,48.0,44.0,30.11,SSW,195,4.0,8.0,86,0.00,,,0.00,,2013-03-16 08:32:00,
2013-03-16 01:42:00,48.0,44.0,30.11,SSW,195,4.0,8.0,86,0.00,,,0.00,,2013-03-16 08:42:00,
2013-03-16 01:52:00,48.0,44.0,30.11,SSW,204,2.0,6.0,86,0.00,,,0.00,,2013-03-16 08:52:00,
2013-03-16 02:01:00,48.0,44.0,30.11,West,276,1.0,6.0,86,0.00,,,0.00,,2013-03-16 09:01:00,
2013-03-16 02:11:00,48.0,44.0,30.11,West,276,1.0,6.0,86,0.00,,,0.00,,2013-03-16 09:11:00,
2013-03-16 02:22:00,48.0,44.0,30.11,SW,217,1.0,4.0,87,0.00,,,0.00,,2013-03-16 09:22:00,
2013-03-16 02:32:00,48.0,44.0,30.11,SSW,205,0.0,4.0,87,0.00,,,0.00,,2013-03-16 09:32:00,
2013-03-16 02:42:00,48.0,44.0,30.11,SSW,205,0.0,4.0,87,0.00,,,0.00,,2013-03-16 09:42:00,
2013-03-16 02:52:00,48.0,44.0,30.11,SSW,207,1.0,3.0,87,0.00,,,0.00,,2013-03-16 09:52:00,
2013-03-16 03:03:00,48.0,44.0,30.10,SSW,195,0.0,3.0,87,0.00,,,0.00,,2013-03-16 10:03:00,
2013-03-16 03:12:00,48.0,44.0,30.10,SSW,195,0.0,3.0,87,0.00,,,0.00,,2013-03-16 10:12:00,
2013-03-16 03:22:00,48.0,44.0,30.09,SSW,195,1.0,3.0,86,0.00,,,0.00,,2013-03-16 10:22:00,
2013-03-16 03:32:00,48.0,44.0,30.09,SSW,195,0.0,2.0,87,0.00,,,0.00,,2013-03-16 10:32:00,
2013-03-16 03:42:00,48.0,44.0,30.09,SSW,195,0.0,2.0,87,0.00,,,0.00,,2013-03-16 10:42:00,
2013-03-16 03:52:00,48.0,44.0,30.09,South,188,2.0,4.0,87,0.00,,,0.00,,2013-03-16 10:52:00,
2013-03-16 04:02:00,48.0,44.0,30.08,South,181,0.0,2.0,87,0.00,,,0.00,,2013-03-16 11:02:00,
2013-03-16 04:11:00,48.0,44.0,30.08,South,181,0.0,2.0,87,0.00,,,0.00,,2013-03-16 11:11:00,
2013-03-16 04:21:00,47.0,43.0,30.07,South,185,2.0,4.0,87,0.00,,,0.00,,2013-03-16 11:21:00,
2013-03-16 04:32:00,47.0,44.0,30.07,WSW,240,2.0,5.0,88,0.00,,,0.00,,2013-03-16 11:32:00,
2013-03-16 04:42:00,47.0,44.0,30.07,WSW,240,2.0,5.0,88,0.00,,,0.00,,2013-03-16 11:42:00,
2013-03-16 04:52:00,47.0,44.0,30.06,SSW,207,2.0,8.0,88,0.00,,,0.00,,2013-03-16 11:52:00,
2013-03-16 05:01:00,47.0,44.0,30.06,SSW,207,1.0,4.0,88,0.00,,,0.00,,2013-03-16 12:01:00,
2013-03-16 05:12:00,47.0,44.0,30.06,SSW,207,1.0,4.0,88,0.00,,,0.00,,2013-03-16 12:12:00,
2013-03-16 05:22:00,47.0,44.0,30.05,South,173,2.0,7.0,88,0.00,,,0.00,,2013-03-16 12:22:00,
2013-03-16 05:32:00,47.0,43.0,30.05,South,176,2.0,8.0,87,0.00,,,0.00,,2013-03-16 12:32:00,
2013-03-16 05:42:00,47.0,43.0,30.05,South,176,2.0,8.0,87,0.00,,,0.00,,2013-03-16 12:42:00,
2013-03-16 05:52:00,47.0,43.0,30.04,South,179,2.0,6.0,87,0.00,,,0.00,,2013-03-16 12:52:00,
2013-03-16 06:02:00,47.0,43.0,30.03,SW,232,2.0,6.0,87,0.00,,,0.00,,2013-03-16 13:02:00,
2013-03-16 06:12:00,47.0,43.0,30.03,SW,232,2.0,6.0,87,0.00,,,0.00,,2013-03-16 13:12:00,
2013-03-16 06:22:00,47.0,43.0,30.03,SW,227,0.0,6.0,87,0.00,,,0.00,,2013-03-16 13:22:00,
2013-03-16 06:31:00,47.0,43.0,30.03,WSW,245,1.0,6.0,86,0.00,,,0.00,,2013-03-16 13:31:00,
2013-03-16 06:41:00,47.0,43.0,30.03,WSW,245,1.0,6.0,86,0.00,,,0.00,,2013-03-16 13:41:00,
2013-03-16 06:53:00,47.0,43.0,30.02,WSW,250,4.0,8.0,87,0.00,,,0.00,,2013-03-16 13:53:00,
2013-03-16 07:01:00,47.0,43.0,30.02,SW,215,5.0,9.0,87,0.00,,,0.00,,2013-03-16 14:01:00,
2013-03-16 07:11:00,47.0,43.0,30.02,SW,215,5.0,9.0,87,0.00,,,0.00,,2013-03-16 14:11:00,
2013-03-16 07:22:00,47.0,43.0,30.01,SSE,153,3.0,7.0,87,0.00,,,0.00,,2013-03-16 14:22:00,
2013-03-16 07:31:00,47.0,43.0,30.02,SSW,212,3.0,8.0,86,0.00,,,0.00,,2013-03-16 14:31:00,
2013-03-16 07:42:00,47.0,43.0,30.02,SSW,212,3.0,8.0,86,0.00,,,0.00,,2013-03-16 14:42:00,
2013-03-16 07:52:00,47.0,43.0,30.02,South,170,1.0,6.0,87,0.00,,,0.00,,2013-03-16 14:52:00,
2013-03-16 08:02:00,47.0,43.0,30.02,WSW,240,2.0,5.0,86,0.00,,,0.00,,2013-03-16 15:02:00,
2013-03-16 08:12:00,47.0,43.0,30.02,WSW,240,2.0,5.0,86,0.00,,,0.00,,2013-03-16 15:12:00,
2013-03-16 08:32:00,47.0,43.0,30.00,SSE,158,5.0,13.0,86,0.00,,,0.00,,2013-03-16 15:32:00,
2013-03-16 08:42:00,47.0,43.0,30.00,SSE,158,5.0,13.0,86,0.00,,,0.00,,2013-03-16 15:42:00,
2013-03-16 08:53:00,47.0,43.0,30.00,SSE,158,5.0,13.0,86,0.00,,,0.00,,2013-03-16 15:53:00,
2013-03-16 09:02:00,47.0,43.0,30.01,SSW,205,6.0,13.0,86,0.00,,,0.00,,2013-03-16 16:02:00,
2013-03-16 09:12:00,47.0,43.0,30.01,SSW,205,6.0,13.0,86,0.00,,,0.00,,2013-03-16 16:12:00,
2013-03-16 09:22:00,47.0,43.0,30.00,SSE,168,6.0,13.0,86,0.00,,,0.00,,2013-03-16 16:22:00,
2013-03-16 09:33:00,47.0,43.0,30.00,West,264,3.0,10.0,86,0.00,,,0.00,,2013-03-16 16:33:00,
2013-03-16 09:42:00,47.0,43.0,30.00,West,264,3.0,10.0,86,0.00,,,0.00,,2013-03-16 16:42:00,
2013-03-16 09:53:00,47.0,43.0,30.00,South,186,3.0,11.0,87,0.00,,,0.00,,2013-03-16 16:53:00,
2013-03-16 10:02:00,47.0,43.0,29.99,SSE,168,5.0,11.0,86,0.00,,,0.00,,2013-03-16 17:02:00,
2013-03-16 10:12:00,47.0,43.0,29.99,SSE,168,5.0,11.0,86,0.00,,,0.00,,2013-03-16 17:12:00,
2013-03-16 10:22:00,48.0,44.0,29.99,South,188,4.0,11.0,85,0.00,,,0.00,,2013-03-16 17:22:00,
2013-03-16 10:32:00,48.0,43.0,29.99,SW,223,4.0,12.0,84,0.00,,,0.00,,2013-03-16 17:32:00,
2013-03-16 10:42:00,48.0,43.0,29.99,SW,223,4.0,12.0,84,0.00,,,0.00,,2013-03-16 17:42:00,
2013-03-16 10:52:00,48.0,44.0,29.99,SW,228,3.0,9.0,85,0.00,,,0.00,,2013-03-16 17:52:00,
2013-03-16 11:02:00,48.0,44.0,29.99,South,177,4.0,6.0,85,0.00,,,0.00,,2013-03-16 18:02:00,
2013-03-16 11:12:00,48.0,44.0,29.99,South,177,4.0,6.0,85,0.00,,,0.00,,2013-03-16 18:12:00,
2013-03-16 11:22:00,48.0,44.0,29.98,East,98,2.0,5.0,85,0.00,,,0.00,,2013-03-16 18:22:00,
2013-03-16 11:32:00,49.0,45.0,29.97,South,174,1.0,8.0,85,0.00,,,0.00,,2013-03-16 18:32:00,
2013-03-16 11:42:00,49.0,45.0,29.97,South,174,1.0,8.0,85,0.00,,,0.00,,2013-03-16 18:42:00,
2013-03-16 11:53:00,49.0,44.0,29.97,SSW,200,2.0,8.0,83,0.00,,,0.00,,2013-03-16 18:53:00,
2013-03-16 12:01:00,49.0,44.0,29.96,SE,127,5.0,12.0,82,0.00,,,0.00,,2013-03-16 19:01:00,
2013-03-16 12:11:00,49.0,44.0,29.96,SE,127,5.0,12.0,82,0.00,,,0.00,,2013-03-16 19:11:00,
2013-03-16 12:22:00,50.0,44.0,29.95,SSW,208,5.0,12.0,81,0.00,,,0.00,,2013-03-16 19:22:00,
2013-03-16 12:32:00,50.0,44.0,29.94,SW,226,4.0,16.0,81,0.00,,,0.00,,2013-03-16 19:32:00,
2013-03-16 12:42:00,50.0,44.0,29.94,SW,226,4.0,16.0,81,0.00,,,0.00,,2013-03-16 19:42:00,
2013-03-16 12:52:00,50.0,44.0,29.93,WSW,250,4.0,16.0,79,0.00,,,0.00,,2013-03-16 19:52:00,
2013-03-16 13:02:00,50.0,44.0,29.93,SSE,157,7.0,15.0,79,0.00,,,0.00,,2013-03-16 20:02:00,
2013-03-16 13:11:00,50.0,44.0,29.93,SSE,157,7.0,15.0,79,0.00,,,0.00,,2013-03-16 20:11:00,
2013-03-16 13:21:00,50.0,45.0,29.92,SSW,198,3.0,13.0,82,0.00,,,0.00,,2013-03-16 20:21:00,
2013-03-16 13:31:00,50.0,44.0,29.92,South,173,6.0,11.0,81,0.00,,,0.00,,2013-03-16 20:31:00,
2013-03-16 13:42:00,50.0,44.0,29.92,South,173,6.0,11.0,81,0.00,,,0.00,,2013-03-16 20:42:00,
2013-03-16 13:52:00,49.0,44.0,29.91,SSW,196,4.0,11.0,83,0.00,,,0.00,,2013-03-16 20:52:00,
2013-03-16 14:01:00,48.0,44.0,29.91,SSE,157,3.0,12.0,87,0.02,,,0.02,,2013-03-16 21:01:00,
2013-03-16 14:11:00,48.0,44.0,29.91,SSE,157,3.0,12.0,87,0.02,,,0.02,,2013-03-16 21:11:00,
2013-03-16 14:22:00,48.0,44.0,29.89,South,169,5.0,15.0,86,0.04,,,0.04,,2013-03-16 21:22:00,
2013-03-16 14:32:00,50.0,44.0,29.88,SSE,153,7.0,15.0,80,0.04,,,0.04,,2013-03-16 21:32:00,
2013-03-16 14:42:00,50.0,44.0,29.88,SSE,153,7.0,15.0,80,0.04,,,0.04,,2013-03-16 21:42:00,
2013-03-16 14:52:00,50.0,44.0,29.88,West,267,3.0,15.0,79,0.04,,,0.04,,2013-03-16 21:52:00,
2013-03-16 15:02:00,51.0,43.0,29.87,SSW,211,6.0,14.0,73,0.02,,,0.04,,2013-03-16 22:02:00,
2013-03-16 15:12:00,51.0,43.0,29.87,SSW,211,6.0,14.0,73,0.02,,,0.04,,2013-03-16 22:12:00,
2013-03-16 15:22:00,51.0,42.0,29.86,South,190,9.0,19.0,71,0.00,,,0.04,,2013-03-16 22:22:00,
2013-03-16 15:32:00,51.0,42.0,29.86,SW,218,7.0,19.0,70,0.00,,,0.04,,2013-03-16 22:32:00,
2013-03-16 15:42:00,51.0,42.0,29.86,SW,218,7.0,19.0,70,0.00,,,0.04,,2013-03-16 22:42:00,
2013-03-16 15:52:00,51.0,41.0,29.87,South,183,6.0,19.0,69,0.00,,,0.04,,2013-03-16 22:52:00,
2013-03-16 16:12:00,52.0,41.0,29.88,South,172,5.0,24.0,65,0.00,,,0.04,,2013-03-16 23:12:00,
2013-03-16 16:22:00,51.0,39.0,29.87,South,182,6.0,14.0,64,0.00,,,0.04,,2013-03-16 23:22:00,
2013-03-16 16:32:00,50.0,39.0,29.86,SW,223,5.0,15.0,67,0.00,,,0.04,,2013-03-16 23:32:00,
2013-03-16 16:42:00,50.0,39.0,29.86,SW,223,5.0,15.0,67,0.00,,,0.04,,2013-03-16 23:42:00,
2013-03-16 16:52:00,50.0,40.0,29.85,SSW,206,4.0,12.0,68,0.00,,,0.04,,2013-03-16 23:52:00,
2013-03-16 17:01:00,49.0,39.0,29.85,South,187,5.0,13.0,68,0.00,,,0.04,,2013-03-17 00:01:00,
2013-03-16 17:12:00,49.0,39.0,29.85,South,187,5.0,13.0,68,0.00,,,0.04,,2013-03-17 00:12:00,
2013-03-16 17:22:00,49.0,39.0,29.85,South,185,6.0,15.0,67,0.00,,,0.04,,2013-03-17 00:22:00,
2013-03-16 17:31:00,48.0,37.0,29.85,South,169,6.0,12.0,65,0.00,,,0.04,,2013-03-17 00:31:00,
2013-03-16 17:42:00,48.0,37.0,29.85,South,169,6.0,12.0,65,0.00,,,0.04,,2013-03-17 00:42:00,
2013-03-16 17:52:00,48.0,36.0,29.85,WSW,240,7.0,16.0,64,0.00,,,0.04,,2013-03-17 00:52:00,
2013-03-16 18:01:00,47.0,36.0,29.85,SSE,165,4.0,10.0,66,0.00,,,0.04,,2013-03-17 01:01:00,
2013-03-16 18:11:00,47.0,36.0,29.85,SSE,165,4.0,10.0,66,0.00,,,0.04,,2013-03-17 01:11:00,
2013-03-16 18:22:00,46.0,35.0,29.85,SSW,198,5.0,11.0,66,0.00,,,0.04,,2013-03-17 01:22:00,
2013-03-16 18:31:00,46.0,36.0,29.86,SE,137,2.0,9.0,67,0.00,,,0.04,,2013-03-17 01:31:00,
2013-03-16 18:41:00,46.0,36.0,29.86,SE,137,2.0,9.0,67,0.00,,,0.04,,2013-03-17 01:41:00,
2013-03-16 18:52:00,46.0,36.0,29.88,WNW,286,3.0,9.0,67,0.00,,,0.04,,2013-03-17 01:52:00,
2013-03-16 19:02:00,45.0,35.0,29.88,SSE,154,1.0,6.0,69,0.00,,,0.04,,2013-03-17 02:02:00,
2013-03-16 19:11:00,45.0,35.0,29.88,SSE,154,1.0,6.0,69,0.00,,,0.04,,2013-03-17 02:11:00,
2013-03-16 19:22:00,45.0,35.0,29.88,NW,323,1.0,5.0,68,0.00,,,0.04,,2013-03-17 02:22:00,
2013-03-16 19:32:00,44.0,36.0,29.89,NNW,347,1.0,7.0,73,0.00,,,0.04,,2013-03-17 02:32:00,
2013-03-16 19:42:00,44.0,36.0,29.89,NNW,347,1.0,7.0,73,0.00,,,0.04,,2013-03-17 02:42:00,
2013-03-16 19:52:00,43.0,37.0,29.90,West,281,0.0,2.0,79,0.00,,,0.04,,2013-03-17 02:52:00,
2013-03-16 20:02:00,42.0,37.0,29.90,West,281,0.0,2.0,81,0.00,,,0.04,,2013-03-17 03:02:00,
2013-03-16 20:11:00,42.0,37.0,29.90,West,281,0.0,2.0,81,0.00,,,0.04,,2013-03-17 03:11:00,
2013-03-16 20:21:00,41.0,36.0,29.90,NNW,343,0.0,1.0,82,0.00,,,0.04,,2013-03-17 03:21:00,
2013-03-16 20:33:00,41.0,36.0,29.91,SW,225,1.0,4.0,82,0.00,,,0.04,,2013-03-17 03:33:00,
2013-03-16 20:42:00,41.0,36.0,29.91,SW,225,1.0,4.0,82,0.00,,,0.04,,2013-03-17 03:42:00,
2013-03-16 20:53:00,40.0,34.0,29.92,South,191,0.0,1.0,80,0.00,,,0.04,,2013-03-17 03:53:00,
2013-03-16 21:02:00,41.0,35.0,29.92,South,170,0.0,2.0,79,0.00,,,0.04,,2013-03-17 04:02:00,
2013-03-16 21:12:00,41.0,35.0,29.92,South,170,0.0,2.0,79,0.00,,,0.04,,2013-03-17 04:12:00,
2013-03-16 21:22:00,40.0,35.0,29.92,SW,231,1.0,2.0,81,0.00,,,0.04,,2013-03-17 04:22:00,
2013-03-16 21:32:00,40.0,35.0,29.92,SW,216,4.0,7.0,81,0.00,,,0.04,,2013-03-17 04:32:00,
2013-03-16 21:42:00,40.0,35.0,29.92,SW,216,4.0,7.0,81,0.00,,,0.04,,2013-03-17 04:42:00,
2013-03-16 21:53:00,40.0,35.0,29.92,South,183,3.0,6.0,82,0.00,,,0.04,,2013-03-17 04:53:00,
2013-03-16 22:02:00,40.0,35.0,29.92,South,171,1.0,6.0,83,0.00,,,0.04,,2013-03-17 05:02:00,
2013-03-16 22:11:00,40.0,35.0,29.92,South,171,1.0,6.0,83,0.00,,,0.04,,2013-03-17 05:11:00,
2013-03-16 22:22:00,40.0,35.0,29.93,SSW,195,1.0,4.0,83,0.00,,,0.04,,2013-03-17 05:22:00,
2013-03-16 22:32:00,40.0,36.0,29.93,WSW,244,1.0,4.0,84,0.00,,,0.04,,2013-03-17 05:32:00,
2013-03-16 22:42:00,40.0,36.0,29.93,WSW,244,1.0,4.0,84,0.00,,,0.04,,2013-03-17 05:42:00,
2013-03-16 22:52:00,39.0,35.0,29.93,SSW,207,3.0,8.0,85,0.00,,,0.04,,2013-03-17 05:52:00,
2013-03-16 23:01:00,39.0,35.0,29.93,SSW,198,0.0,2.0,85,0.00,,,0.04,,2013-03-17 06:01:00,
2013-03-16 23:12:00,39.0,35.0,29.93,SSW,198,0.0,2.0,85,0.00,,,0.04,,2013-03-17 06:12:00,
2013-03-16 23:21:00,38.0,34.0,29.94,SSE,158,0.0,1.0,86,0.00,,,0.04,,2013-03-17 06:21:00,
2013-03-16 23:32:00,38.0,34.0,29.95,SSE,158,0.0,2.0,86,0.00,,,0.04,,2013-03-17 06:32:00,
2013-03-16 23:42:00,38.0,34.0,29.95,SSE,158,0.0,2.0,86,0.00,,,0.04,,2013-03-17 06:42:00,
2013-03-16 23:52:00,38.0,34.0,29.95,South,184,1.0,2.0,87,0.00,,,0.04,,2013-03-17 06:52:00,